createdAt,value
2023-01-05T07:55:08.621Z,99041.56
2023-01-05T07:56:12.304Z,99038.09
2023-01-05T08:03:32.686Z,99033.47
2023-01-05T08:04:46.388Z,99030.75
2023-01-05T08:06:00.893Z,99036.25
2023-01-05T08:11:45.901Z,99036.56
2023-01-05T08:13:14.981Z,99037.69
2023-01-05T08:14:25.405Z,99033.19
2023-01-05T08:17:29.696Z,99023.22
2023-01-05T08:19:03.370Z,99030.88
2023-01-05T11:10:10.131Z,98950.38
2023-01-05T11:11:21.696Z,98949.72
2023-01-05T11:12:25.842Z,98951.31
2023-01-05T11:13:34.341Z,98951.63
2023-01-05T11:14:46.656Z,98953.53
2023-01-05T11:16:31.592Z,98953.72
2023-01-05T11:21:40.502Z,98949.41
2023-01-05T12:25:10.216Z,98939.66
2023-01-05T13:01:39.420Z,98964.31
2023-01-05T13:03:00.666Z,98962.75
2023-01-05T13:06:06.362Z,98964.94
2023-01-05T13:07:32.079Z,98965.66
2023-01-05T13:13:22.326Z,98963.59
2023-01-05T18:35:30.251Z,99144.78
2023-01-05T18:36:37.846Z,99142.09
2023-01-05T18:37:47.666Z,99143.06
2023-01-05T18:38:52.453Z,99151.19
2023-01-05T18:39:57.486Z,99157.03
2023-01-05T18:41:00.447Z,99153.78
2023-01-05T18:42:08.059Z,99163.97
2023-01-05T18:43:12.934Z,99162.91
2023-01-05T18:44:23.860Z,99167.66
2023-01-05T18:45:38.259Z,99178.47
2023-01-05T18:46:45.351Z,99171.66
2023-01-05T18:47:48.697Z,99178.03
2023-01-05T18:48:52.047Z,99169.97
2023-01-05T18:49:59.500Z,99176.69
2023-01-05T18:51:08.253Z,99171.66
2023-01-05T18:52:13.211Z,99178.53
2023-01-05T18:53:17.520Z,99178.59
2023-01-05T18:54:23.926Z,99187.63
2023-01-05T18:55:27.550Z,99183.09
2023-01-05T18:56:32.067Z,99186.09
2023-01-05T18:57:37.082Z,99190.91
2023-01-05T18:58:43.384Z,99194.66
2023-01-05T18:59:51.762Z,99186.97
2023-01-05T19:01:00.935Z,99188.84
2023-01-05T19:02:05.114Z,99188.44
2023-01-05T19:03:14.252Z,99197.09
2023-01-05T19:04:23.950Z,99196.00
2023-01-05T19:05:33.660Z,99195.19
2023-01-05T19:06:38.319Z,99193.81
2023-01-05T19:07:41.544Z,99199.69
2023-01-05T19:08:54.925Z,99201.59
2023-01-05T19:09:58.892Z,99205.59
2023-01-05T19:11:16.459Z,99206.19
2023-01-05T19:12:27.123Z,99203.84
2023-01-05T20:38:06.514Z,99292.91
2023-01-05T20:39:10.344Z,99283.84
2023-01-05T20:40:16.852Z,99290.81
2023-01-05T20:41:36.071Z,99297.69
2023-01-05T20:42:41.890Z,99301.38
2023-01-05T20:43:53.815Z,99292.38
2023-01-05T20:45:05.608Z,99297.69
2023-01-05T20:46:20.146Z,99295.81
2023-01-05T20:47:46.571Z,99304.59
2023-01-05T20:49:05.670Z,99308.31
2023-01-05T20:50:12.930Z,99305.38
2023-01-05T20:51:33.189Z,99302.38
2023-01-05T20:52:46.212Z,99301.81
2023-01-05T21:04:15.600Z,99312.75
2023-01-05T21:05:25.009Z,99321.69
2023-01-05T21:06:32.872Z,99317.50
2023-01-05T21:08:03.624Z,99318.03
2023-01-05T21:09:23.487Z,99324.19
2023-01-05T21:10:31.089Z,99319.25
2023-01-05T21:11:50.455Z,99319.81
2023-01-05T21:13:46.678Z,99323.06
2023-01-05T21:15:10.466Z,99325.66
2023-01-05T21:16:22.439Z,99336.31
2023-01-05T21:17:25.144Z,99341.63
2023-01-05T21:22:38.096Z,99340.38
2023-01-05T21:23:45.250Z,99347.06
2023-01-05T21:24:47.860Z,99348.31
2023-01-05T22:16:34.106Z,99432.13
2023-01-05T22:17:45.812Z,99435.38
2023-01-05T22:19:02.594Z,99443.13
2023-01-05T22:26:22.047Z,99458.22
2023-01-05T22:27:29.855Z,99451.06
2023-01-05T22:28:37.371Z,99468.94
2023-01-05T22:29:40.484Z,99454.88
2023-01-05T22:30:43.122Z,99461.09
2023-01-05T22:31:50.987Z,99465.03
2023-01-05T22:32:58.536Z,99465.41
2023-01-05T22:34:06.605Z,99464.34
2023-01-05T22:35:12.523Z,99468.63
2023-01-05T22:36:20.650Z,99469.31
2023-01-05T22:37:23.759Z,99476.09
2023-01-05T22:38:28.722Z,99469.31
2023-01-05T22:39:33.815Z,99469.97
2023-01-05T22:40:41.025Z,99463.91
2023-01-05T22:41:47.404Z,99467.81
2023-01-05T22:42:54.839Z,99469.31
2023-01-05T22:44:04.659Z,99475.06
2023-01-05T22:45:10.987Z,99473.09
2023-01-05T22:46:20.171Z,99476.16
2023-01-05T22:47:25.096Z,99480.63
2023-01-05T22:48:28.486Z,99468.63
2023-01-05T22:49:31.844Z,99478.66
2023-01-05T22:50:35.078Z,99479.50
2023-01-05T22:51:41.640Z,99486.88
2023-01-05T22:52:46.442Z,99487.53
2023-01-05T22:53:52.378Z,99491.81
2023-01-05T22:54:58.438Z,99490.56
2023-01-05T22:56:02.007Z,99492.75
2023-01-05T22:57:08.738Z,99490.56
2023-01-05T22:58:14.715Z,99488.84
2023-01-05T22:59:18.141Z,99495.19
2023-01-05T23:00:21.090Z,99493.84
2023-01-05T23:01:27.302Z,99492.66
2023-01-05T23:02:33.558Z,99492.03
2023-01-05T23:03:37.871Z,99499.91
2023-01-05T23:04:43.810Z,99490.00
2023-01-05T23:05:53.430Z,99500.06
2023-01-05T23:07:01.180Z,99503.75
2023-01-05T23:08:08.266Z,99502.81
2023-01-05T23:09:14.256Z,99501.09
2023-01-05T23:10:18.092Z,99506.72
2023-01-05T23:11:23.141Z,99511.09
2023-01-05T23:12:26.152Z,99513.75
2023-01-05T23:13:30.336Z,99519.97
2023-01-05T23:14:35.717Z,99519.63
2023-01-05T23:15:41.426Z,99522.66
2023-01-05T23:16:45.723Z,99520.38
2023-01-05T23:17:48.866Z,99519.91
2023-01-05T23:18:53.280Z,99518.28
2023-01-05T23:20:02.404Z,99524.25
2023-01-05T23:21:10.503Z,99526.56
2023-01-05T23:22:15.947Z,99529.44
2023-01-05T23:23:25.115Z,99528.53
2023-01-05T23:24:31.062Z,99538.31
2023-01-05T23:25:35.506Z,99541.19
2023-01-05T23:26:39.147Z,99540.72
2023-01-05T23:27:42.390Z,99533.56
2023-01-05T23:28:46.235Z,99540.50
2023-01-05T23:29:49.436Z,99534.38
2023-01-05T23:30:57.483Z,99539.34
2023-01-05T23:32:05.520Z,99544.50
2023-01-05T23:33:08.399Z,99548.19
2023-01-05T23:34:11.821Z,99540.59
2023-01-05T23:35:17.466Z,99540.94
2023-01-05T23:36:24.610Z,99544.84
2023-01-05T23:37:29.542Z,99539.44
2023-01-05T23:38:36.241Z,99540.09
2023-01-05T23:39:45.130Z,99554.75
2023-01-05T23:40:50.609Z,99550.25
2023-01-05T23:41:54.374Z,99564.41
2023-01-05T23:42:57.817Z,99557.63
2023-01-05T23:44:03.164Z,99553.81
2023-01-05T23:45:08.031Z,99556.00
2023-01-05T23:46:21.212Z,99564.41
2023-01-05T23:47:25.628Z,99563.81
2023-01-05T23:48:32.243Z,99557.38
2023-01-05T23:49:35.482Z,99511.00
2023-01-05T23:50:47.868Z,99517.66
2023-01-05T23:51:52.302Z,99531.94
2023-01-05T23:52:57.028Z,99522.50
2023-01-05T23:54:02.251Z,99533.22
2023-01-05T23:55:05.467Z,99537.69
2023-01-05T23:56:11.556Z,99534.94
2023-01-05T23:57:17.669Z,99529.94
2023-01-05T23:58:21.685Z,99538.00
2023-01-05T23:59:24.703Z,99535.47
